Time;durP1;ratioP1;P1;durP2;ratioP2;P2;SDS_P1;SDS_P2;PMS_P1;PMS_P2;Temp;Humidity;BMP_temperature;BMP_pressure;BME280_temperature;BME280_humidity;BME280_pressure;Samples;Min_cycle;Max_cycle;Signal;HPM_P1;HPM_P2
2022/10/17 00:00:38;;;;;;;8.40;1.27;;;;;;;-145.69;100.00;52464.19;5054697;28;20218;-85
2022/10/17 00:03:12;;;;;;;5.50;1.38;;;;;;;-145.69;100.00;52408.75;5054945;28;20208;-84
2022/10/17 00:05:40;;;;;;;4.50;1.50;;;;;;;-145.69;100.00;52430.53;5054523;28;20213;-84
2022/10/17 00:08:07;;;;;;;9.18;1.35;;;;;;;-145.69;100.00;52410.72;5054656;28;20200;-86
2022/10/17 00:10:34;;;;;;;2.40;1.30;;;;;;;-145.69;100.00;52440.44;5054379;28;20699;-85
2022/10/17 00:13:00;;;;;;;4.28;1.85;;;;;;;-145.69;100.00;52444.38;5036348;28;20203;-84
2022/10/17 00:15:33;;;;;;;2.08;1.30;;;;;;;-145.69;100.00;52418.63;5054414;28;20207;-85
2022/10/17 00:18:01;;;;;;;4.60;1.35;;;;;;;-145.69;100.00;52430.53;5048775;28;20235;-85
2022/10/17 00:20:29;;;;;;;2.22;1.48;;;;;;;-145.69;100.00;52428.53;5016916;28;20287;-84
2022/10/17 00:22:55;;;;;;;4.30;1.55;;;;;;;-145.69;100.00;52412.69;5034345;28;20210;-84
2022/10/17 00:25:25;;;;;;;5.90;1.52;;;;;;;-145.69;100.00;52416.66;5034392;28;20235;-84
2022/10/17 00:27:51;;;;;;;4.53;1.50;;;;;;;-145.69;100.00;52428.53;5034507;28;20200;-84
2022/10/17 00:30:18;;;;;;;2.13;1.35;;;;;;;-145.69;100.00;52412.69;5034269;28;20654;-84
2022/10/17 00:32:44;;;;;;;2.83;1.70;;;;;;;-145.69;100.00;52424.59;5034424;28;20197;-84
2022/10/17 00:35:14;;;;;;;4.35;1.23;;;;;;;-145.69;100.00;52404.78;5034320;28;20208;-84
2022/10/17 00:37:43;;;;;;;9.88;1.52;;;;;;;-145.69;100.00;52408.75;5034082;28;20204;-85
2022/10/17 00:40:12;;;;;;;4.80;1.35;;;;;;;-145.69;100.00;52448.34;5033870;28;20750;-83
2022/10/17 00:42:39;;;;;;;3.75;1.73;;;;;;;-145.69;100.00;52420.63;5034286;28;20275;-83
2022/10/17 00:45:16;;;;;;;3.58;1.40;;;;;;;-145.69;100.00;52452.31;5034021;28;20219;-84
2022/10/17 00:47:47;;;;;;;6.35;1.50;;;;;;;-145.69;100.00;52440.44;5035082;28;20207;-83
2022/10/17 00:50:15;;;;;;;5.93;1.33;;;;;;;-145.69;100.00;52404.78;5034725;28;20231;-83
2022/10/17 00:52:48;;;;;;;4.22;1.38;;;;;;;-145.69;100.00;52436.47;5034902;28;20204;-84
2022/10/17 00:55:22;;;;;;;7.68;2.28;;;;;;;-145.69;100.00;52460.22;5034657;28;20214;-84
2022/10/17 00:57:50;;;;;;;3.78;1.50;;;;;;;-145.69;100.00;52426.56;5034591;28;20199;-83
2022/10/17 01:00:18;;;;;;;7.18;1.52;;;;;;;-145.69;100.00;52428.53;5034431;28;20204;-84
2022/10/17 01:02:49;;;;;;;6.72;1.83;;;;;;;-145.69;100.00;52442.41;5034151;28;20246;-82
2022/10/17 01:05:21;;;;;;;2.30;1.52;;;;;;;-145.69;100.00;52406.75;5033664;28;20235;-84
2022/10/17 01:07:50;;;;;;;3.05;1.67;;;;;;;-145.69;100.00;52452.31;5034770;28;20208;-84
2022/10/17 01:10:17;;;;;;;5.35;1.23;;;;;;;-145.69;100.00;52440.44;5033973;28;20232;-83
2022/10/17 01:13:01;;;;;;;8.27;1.67;;;;;;;-145.69;100.00;52448.34;5033962;28;20594;-83
2022/10/17 01:15:41;;;;;;;2.85;1.33;;;;;;;-145.69;100.00;52464.19;5033461;28;20208;-83
2022/10/17 01:18:17;;;;;;;3.78;1.60;;;;;;;-145.69;100.00;52444.38;5034278;28;20285;-83
2022/10/17 01:21:06;;;;;;;3.72;1.73;;;;;;;-145.69;100.00;52418.63;5034895;28;20318;-83
2022/10/17 01:24:29;;;;;;;5.47;1.20;;;;;;;-145.69;100.00;52485.97;5033517;28;20207;-83
2022/10/17 01:27:24;;;;;;;2.53;1.20;;;;;;;-145.69;100.00;52444.38;4953480;29;20563;-83
2022/10/17 01:30:10;;;;;;;3.92;1.60;;;;;;;-145.69;100.00;52480.03;5031081;28;20228;-83
2022/10/17 01:32:44;;;;;;;6.80;1.55;;;;;;;-145.69;100.00;52446.38;5034590;28;20207;-83
2022/10/17 01:35:17;;;;;;;3.30;1.70;;;;;;;-145.69;100.00;52444.38;5034032;28;20212;-83
2022/10/17 01:37:48;;;;;;;6.28;1.75;;;;;;;-145.69;100.00;52468.16;5034049;28;20229;-83
2022/10/17 01:40:24;;;;;;;4.60;1.43;;;;;;;-145.69;100.00;52478.06;5033658;28;20291;-81
2022/10/17 01:42:57;;;;;;;4.05;1.70;;;;;;;-145.69;100.00;52462.22;5033823;28;20211;-83
2022/10/17 01:45:30;;;;;;;8.73;1.50;;;;;;;-145.69;100.00;52450.31;5035140;28;20199;-84
2022/10/17 01:48:03;;;;;;;11.00;1.90;;;;;;;-145.69;100.00;52493.91;5033363;28;20231;-84
2022/10/17 01:50:34;;;;;;;4.20;1.70;;;;;;;-145.69;100.00;52444.38;5033062;28;20615;-83
2022/10/17 01:53:05;;;;;;;3.10;1.40;;;;;;;-145.69;100.00;52464.19;5047414;28;20199;-83
2022/10/17 01:55:36;;;;;;;6.93;1.52;;;;;;;-145.69;100.00;52460.22;5052881;28;20195;-84
2022/10/17 01:58:10;;;;;;;3.70;1.60;;;;;;;-145.69;100.00;52462.22;5052673;28;20477;-83
2022/10/17 02:00:38;;;;;;;7.30;1.55;;;;;;;-145.69;100.00;52466.16;5052258;28;20204;-84
2022/10/17 02:03:12;;;;;;;2.92;1.40;;;;;;;-145.69;100.00;52464.19;5052781;28;20547;-83
2022/10/17 02:05:42;;;;;;;3.20;1.40;;;;;;;-145.69;100.00;52523.59;5052993;28;20188;-83
2022/10/17 02:08:09;;;;;;;2.23;1.47;;;;;;;-145.69;100.00;52466.16;5053706;28;20196;-84
2022/10/17 02:10:41;;;;;;;5.53;1.70;;;;;;;-145.69;100.00;52460.22;5052885;28;20231;-83
2022/10/17 02:13:19;;;;;;;3.93;1.50;;;;;;;-145.69;100.00;52482.00;5052996;28;20199;-84
2022/10/17 02:16:06;;;;;;;4.20;1.33;;;;;;;-145.69;100.00;52470.13;5038428;28;20766;-84
2022/10/17 02:18:47;;;;;;;4.60;1.63;;;;;;;-145.69;100.00;52484.00;5034824;28;20237;-83
2022/10/17 02:21:24;;;;;;;8.20;1.80;;;;;;;-145.69;100.00;52507.75;5036703;28;20199;-84
2022/10/17 02:23:56;;;;;;;9.63;1.37;;;;;;;-145.69;100.00;52493.91;5036651;28;20743;-84
2022/10/17 02:26:28;;;;;;;5.53;1.60;;;;;;;-145.69;100.00;52476.06;5036323;28;20204;-84
2022/10/17 02:29:03;;;;;;;3.07;1.50;;;;;;;-145.69;100.00;52472.13;5036595;28;20205;-84
2022/10/17 02:31:34;;;;;;;4.40;1.47;;;;;;;-145.69;100.00;52485.97;5036603;28;20210;-84
2022/10/17 02:34:06;;;;;;;2.95;1.48;;;;;;;-145.69;100.00;52499.84;5036551;28;20208;-84
2022/10/17 02:36:36;;;;;;;5.13;1.50;;;;;;;-145.69;100.00;52491.91;5036310;28;20207;-84
2022/10/17 02:39:05;;;;;;;4.23;1.70;;;;;;;-145.69;100.00;52472.13;5036336;28;20262;-84
2022/10/17 02:41:36;;;;;;;6.97;1.50;;;;;;;-145.69;100.00;52489.94;5036183;28;20607;-83
2022/10/17 02:44:05;;;;;;;5.83;1.40;;;;;;;-145.69;100.00;52472.13;5036157;28;20287;-84
2022/10/17 02:46:33;;;;;;;3.63;1.43;;;;;;;-145.69;100.00;52487.97;5055231;28;20291;-84
2022/10/17 02:49:05;;;;;;;4.53;1.87;;;;;;;-145.69;100.00;52458.25;5055976;28;20206;-83
2022/10/17 02:51:40;;;;;;;3.67;1.40;;;;;;;-145.69;100.00;52484.00;5056117;28;20203;-84
2022/10/17 02:54:14;;;;;;;5.83;1.43;;;;;;;-145.69;100.00;52495.88;5056257;28;20209;-84
2022/10/17 02:56:46;;;;;;;3.73;1.53;;;;;;;-145.69;100.00;52474.09;5056258;28;20203;-84
2022/10/17 02:59:15;;;;;;;6.07;1.87;;;;;;;-145.69;100.00;52452.31;5056540;28;20203;-83
2022/10/17 03:01:42;;;;;;;2.03;1.43;;;;;;;-145.69;100.00;52456.28;5055823;28;20199;-83
2022/10/17 03:04:12;;;;;;;4.73;1.70;;;;;;;-145.69;100.00;52458.25;5056086;28;20218;-84
2022/10/17 03:06:38;;;;;;;2.80;1.40;;;;;;;-145.69;100.00;52468.16;5055445;28;20710;-83
2022/10/17 03:09:06;;;;;;;6.40;1.40;;;;;;;-145.69;100.00;52487.97;5055793;28;20212;-84
2022/10/17 03:11:35;;;;;;;4.43;1.40;;;;;;;-145.69;100.00;52476.06;5056722;28;20231;-84
2022/10/17 03:14:04;;;;;;;4.33;1.40;;;;;;;-145.69;100.00;52480.03;5054657;28;20202;-83
2022/10/17 03:16:31;;;;;;;4.07;1.60;;;;;;;-145.69;100.00;52482.00;5036238;28;20204;-83
2022/10/17 03:19:02;;;;;;;6.63;1.53;;;;;;;-145.69;100.00;52487.97;5035998;28;20228;-83
2022/10/17 03:21:30;;;;;;;7.73;1.50;;;;;;;-145.69;100.00;52462.22;5035830;28;20204;-84
2022/10/17 03:23:58;;;;;;;8.27;1.87;;;;;;;-145.69;100.00;52478.06;5039043;28;20654;-84
2022/10/17 03:26:24;;;;;;;7.90;1.90;;;;;;;-145.69;100.00;52493.91;5055755;28;20199;-83
2022/10/17 03:28:51;;;;;;;4.93;1.40;;;;;;;-145.69;100.00;52487.97;5054818;28;20205;-82
2022/10/17 03:31:18;;;;;;;3.83;1.57;;;;;;;-145.69;100.00;52480.03;5054798;28;20234;-84
2022/10/17 03:33:46;;;;;;;5.30;1.50;;;;;;;-145.69;100.00;52503.81;5055266;28;20268;-84
2022/10/17 03:36:15;;;;;;;8.03;1.63;;;;;;;-145.69;100.00;52499.84;5055445;28;20199;-85
2022/10/17 03:38:44;;;;;;;4.30;1.57;;;;;;;-145.69;100.00;52499.84;5055365;28;20199;-83
2022/10/17 03:41:11;;;;;;;6.27;1.50;;;;;;;-145.69;100.00;52491.91;5054855;28;20200;-83
2022/10/17 03:43:40;;;;;;;4.43;1.70;;;;;;;-145.69;100.00;52519.63;5054988;28;20199;-83
2022/10/17 03:46:06;;;;;;;3.63;1.50;;;;;;;-145.69;100.00;52460.22;5036444;28;20196;-84
2022/10/17 03:48:35;;;;;;;2.85;1.70;;;;;;;-145.69;100.00;52493.91;5035190;28;20714;-84
2022/10/17 03:51:05;;;;;;;7.10;2.03;;;;;;;-145.69;100.00;52460.22;5035725;28;20709;-84
2022/10/17 03:53:32;;;;;;;4.40;1.70;;;;;;;-145.69;100.00;52535.47;5036337;28;20247;-84
2022/10/17 03:56:09;;;;;;;2.53;1.10;;;;;;;-145.69;100.00;52474.09;5036008;28;20563;-83
2022/10/17 03:58:36;;;;;;;3.30;1.67;;;;;;;-145.69;100.00;52484.00;5035431;28;20200;-84
2022/10/17 04:01:04;;;;;;;2.33;1.70;;;;;;;-145.69;100.00;52491.91;5034643;28;20200;-84
2022/10/17 04:03:30;;;;;;;10.13;2.10;;;;;;;-145.69;100.00;52501.81;5048585;28;20202;-84
2022/10/17 04:05:58;;;;;;;3.63;2.17;;;;;;;-145.69;100.00;52476.06;5055067;28;20207;-83
2022/10/17 04:08:25;;;;;;;4.10;1.50;;;;;;;-145.69;100.00;52517.66;5056694;28;20200;-83
2022/10/17 04:10:52;;;;;;;6.00;1.37;;;;;;;-145.69;100.00;52515.69;5055881;28;20227;-83
2022/10/17 04:13:22;;;;;;;10.07;1.80;;;;;;;-145.69;100.00;52484.00;5056433;28;20199;-83
2022/10/17 04:15:54;;;;;;;7.03;1.83;;;;;;;-145.69;100.00;52487.97;5056469;28;20207;-83
2022/10/17 04:18:24;;;;;;;8.80;1.90;;;;;;;-145.69;100.00;52464.19;5055059;28;20235;-83
2022/10/17 04:20:54;;;;;;;3.63;1.73;;;;;;;-145.69;100.00;52527.56;5054873;28;20227;-84
2022/10/17 04:23:21;;;;;;;5.73;2.40;;;;;;;-145.69;100.00;52523.59;5035944;28;20677;-83
2022/10/17 04:25:50;;;;;;;5.33;1.67;;;;;;;-145.69;100.00;52499.84;5034923;28;20208;-84
2022/10/17 04:28:17;;;;;;;4.57;2.03;;;;;;;-145.69;100.00;52493.91;5034611;28;20200;-84
2022/10/17 04:30:44;;;;;;;9.93;1.77;;;;;;;-145.69;100.00;52487.97;5034257;28;20232;-83
2022/10/17 04:33:11;;;;;;;5.47;1.70;;;;;;;-145.69;100.00;52478.06;5034232;28;20299;-82
2022/10/17 04:35:38;;;;;;;6.10;1.90;;;;;;;-145.69;100.00;52493.91;5034029;28;20210;-84
2022/10/17 04:38:10;;;;;;;9.70;2.23;;;;;;;-145.69;100.00;52485.97;5033800;28;20660;-83
2022/10/17 04:40:36;;;;;;;4.03;2.00;;;;;;;-145.69;100.00;52539.44;5033705;28;20204;-83
2022/10/17 04:43:03;;;;;;;3.97;1.90;;;;;;;-145.69;100.00;52493.91;5034411;28;20303;-83
2022/10/17 04:45:29;;;;;;;5.87;1.70;;;;;;;-145.69;100.00;52499.84;5034691;28;20203;-82
2022/10/17 04:47:57;;;;;;;10.20;2.20;;;;;;;-145.69;100.00;52547.38;5034881;28;20208;-83
2022/10/17 04:50:24;;;;;;;13.10;2.00;;;;;;;-145.69;100.00;52507.75;5034571;28;20239;-83
2022/10/17 04:52:52;;;;;;;6.93;2.00;;;;;;;-145.69;100.00;52513.69;5047612;28;20210;-83
2022/10/17 04:55:25;;;;;;;6.60;2.20;;;;;;;-145.69;100.00;52466.16;5053523;28;20199;-83
2022/10/17 04:57:53;;;;;;;6.33;2.83;;;;;;;-145.69;100.00;52507.75;5053936;28;20203;-83
2022/10/17 05:00:20;;;;;;;9.53;2.23;;;;;;;-145.69;100.00;52487.97;5054589;28;20233;-84
2022/10/17 05:02:49;;;;;;;3.20;2.07;;;;;;;-145.69;100.00;52503.81;5054614;28;20653;-84
2022/10/17 05:05:17;;;;;;;4.30;2.23;;;;;;;-145.69;100.00;52491.91;5053672;28;20206;-81
2022/10/17 05:07:43;;;;;;;7.43;2.43;;;;;;;-145.69;100.00;52499.84;5050428;28;20204;-83
2022/10/17 05:10:10;;;;;;;3.10;2.17;;;;;;;-145.69;100.00;52507.75;5034353;28;20236;-83
2022/10/17 05:12:36;;;;;;;8.07;2.47;;;;;;;-145.69;100.00;52487.97;5034414;28;20571;-82
2022/10/17 05:15:04;;;;;;;6.67;2.10;;;;;;;-145.69;100.00;52531.53;5034324;28;20294;-82
2022/10/17 05:17:30;;;;;;;5.07;2.37;;;;;;;-145.69;100.00;52484.00;5047491;28;20210;-82
2022/10/17 05:19:57;;;;;;;5.33;2.40;;;;;;;-145.69;100.00;52515.69;5053716;28;20270;-83
2022/10/17 05:22:29;;;;;;;12.47;2.43;;;;;;;-145.69;100.00;52507.75;5053677;28;20661;-82
2022/10/17 05:24:57;;;;;;;4.53;2.30;;;;;;;-145.69;100.00;52491.91;5053383;28;20218;-83
2022/10/17 05:27:24;;;;;;;3.63;2.23;;;;;;;-145.69;100.00;52501.81;5049816;28;20554;-82
2022/10/17 05:29:51;;;;;;;3.80;2.47;;;;;;;-145.69;100.00;52511.72;5053405;28;20561;-83
2022/10/17 05:32:17;;;;;;;4.73;2.33;;;;;;;-145.69;100.00;52489.94;5053597;28;20238;-83
2022/10/17 05:34:44;;;;;;;5.53;2.73;;;;;;;-145.69;100.00;52503.81;5053713;28;20658;-83
2022/10/17 05:37:12;;;;;;;6.20;2.13;;;;;;;-145.69;100.00;52507.75;5053474;28;20203;-83
2022/10/17 05:39:40;;;;;;;8.07;2.03;;;;;;;-145.69;100.00;52484.00;5053394;28;20199;-82
2022/10/17 05:42:11;;;;;;;9.37;2.87;;;;;;;-145.69;100.00;52456.28;5052882;28;20204;-82
2022/10/17 05:44:40;;;;;;;6.57;2.63;;;;;;;-145.69;100.00;52484.00;5053184;28;20196;-83
2022/10/17 05:47:09;;;;;;;9.63;2.50;;;;;;;-145.69;100.00;52501.81;5042403;28;20192;-83
2022/10/17 05:49:35;;;;;;;10.43;2.70;;;;;;;-145.69;100.00;52487.97;5033607;28;20200;-83
2022/10/17 05:52:04;;;;;;;11.13;2.70;;;;;;;-145.69;100.00;52497.84;5035030;28;20232;-82
2022/10/17 05:54:31;;;;;;;10.27;2.70;;;;;;;-145.69;100.00;52499.84;5037639;28;20200;-82
2022/10/17 05:57:01;;;;;;;7.80;2.40;;;;;;;-145.69;100.00;52507.75;5037044;28;20740;-82
2022/10/17 05:59:28;;;;;;;8.82;2.50;;;;;;;-145.69;100.00;52517.66;5037684;28;20562;-82
2022/10/17 06:01:57;;;;;;;3.57;2.10;;;;;;;-145.69;100.00;52491.91;5037493;28;20204;-82
2022/10/17 06:04:27;;;;;;;9.20;2.67;;;;;;;-145.69;100.00;52513.69;5037461;28;20247;-82
2022/10/17 06:06:56;;;;;;;7.30;2.63;;;;;;;-145.69;100.00;52484.00;5037267;28;20204;-82
2022/10/17 06:09:24;;;;;;;11.13;2.33;;;;;;;-145.69;100.00;52507.75;5037742;28;20564;-82
2022/10/17 06:11:50;;;;;;;4.60;2.30;;;;;;;-145.69;100.00;52484.00;5038466;28;20590;-82
2022/10/17 06:14:22;;;;;;;4.10;2.23;;;;;;;-145.69;100.00;52491.91;5041575;28;20204;-84
2022/10/17 06:16:49;;;;;;;7.33;2.27;;;;;;;-145.69;100.00;52493.91;5044342;28;20223;-83
2022/10/17 06:19:24;;;;;;;7.27;2.07;;;;;;;-145.69;100.00;52503.81;5038345;28;20231;-83
2022/10/17 06:21:53;;;;;;;8.57;2.30;;;;;;;-145.69;100.00;52497.84;5056430;28;20209;-83
2022/10/17 06:24:19;;;;;;;4.93;2.30;;;;;;;-145.69;100.00;52489.94;5056372;28;20207;-83
2022/10/17 06:26:49;;;;;;;5.60;2.23;;;;;;;-145.69;100.00;52511.72;5056266;28;20291;-83
2022/10/17 06:29:17;;;;;;;6.67;2.50;;;;;;;-145.69;100.00;52482.00;5056419;28;20298;-84
2022/10/17 06:31:44;;;;;;;4.97;2.27;;;;;;;-145.69;100.00;52519.63;5055995;28;20243;-83
2022/10/17 06:34:16;;;;;;;9.17;2.20;;;;;;;-145.69;100.00;52487.97;5055956;28;20204;-83
2022/10/17 06:36:47;;;;;;;10.00;2.17;;;;;;;-145.69;100.00;52507.75;5036114;28;20244;-83
2022/10/17 06:39:13;;;;;;;7.70;2.13;;;;;;;-145.69;100.00;52470.13;5036255;28;20685;-83
2022/10/17 06:41:43;;;;;;;7.90;2.03;;;;;;;-145.69;100.00;52527.56;5018164;28;20204;-83
2022/10/17 06:44:27;;;;;;;3.67;2.30;;;;;;;-145.69;100.00;52487.97;5036184;28;20290;-82
2022/10/17 06:46:55;;;;;;;3.47;1.93;;;;;;;-145.69;100.00;52476.06;5041487;28;20697;-83
2022/10/17 06:49:23;;;;;;;4.80;2.30;;;;;;;-145.69;100.00;52468.16;5056081;28;20688;-83
2022/10/17 06:51:50;;;;;;;5.87;2.27;;;;;;;-145.69;100.00;52472.13;5056124;28;20689;-83
2022/10/17 06:54:17;;;;;;;3.77;2.30;;;;;;;-145.69;100.00;52468.16;5056537;28;20199;-82
2022/10/17 06:56:43;;;;;;;4.37;1.97;;;;;;;-145.69;100.00;52464.19;5057494;28;20206;-82
2022/10/17 06:59:10;;;;;;;7.33;1.60;;;;;;;-145.69;100.00;52517.66;5056700;28;20301;-82
2022/10/17 07:01:45;;;;;;;4.60;1.80;;;;;;;-145.69;100.00;52460.22;5057173;28;20206;-82
2022/10/17 07:04:13;;;;;;;5.32;2.22;;;;;;;-145.69;100.00;52480.03;5056004;28;20199;-82
2022/10/17 07:06:43;;;;;;;6.78;1.85;;;;;;;-145.69;100.00;52503.81;5056327;28;20204;-82
2022/10/17 07:09:11;;;;;;;10.90;2.13;;;;;;;-145.69;100.00;52503.81;5056185;28;20200;-82
2022/10/17 07:11:40;;;;;;;5.47;1.70;;;;;;;-145.69;100.00;52474.09;5056400;28;20231;-82
2022/10/17 07:14:07;;;;;;;3.75;1.70;;;;;;;-145.69;100.00;52507.75;5057276;28;20204;-82
2022/10/17 07:16:34;;;;;;;5.10;2.00;;;;;;;-145.69;100.00;52503.81;5048893;28;20204;-81
2022/10/17 07:19:00;;;;;;;4.28;2.05;;;;;;;-145.69;100.00;52472.13;5050408;28;20234;-82
2022/10/17 07:21:31;;;;;;;5.20;2.00;;;;;;;-145.69;100.00;52452.31;5057261;28;20207;-83
2022/10/17 07:23:58;;;;;;;3.40;1.60;;;;;;;-145.69;100.00;52478.06;5055468;28;20286;-83
2022/10/17 07:26:25;;;;;;;5.43;1.88;;;;;;;-145.69;100.00;52487.97;5055369;28;20225;-83
2022/10/17 07:28:53;;;;;;;2.35;1.65;;;;;;;-145.69;100.00;52460.22;5055512;28;20286;-83
2022/10/17 07:31:22;;;;;;;3.95;1.73;;;;;;;-145.69;100.00;52484.00;5055167;28;20235;-83
2022/10/17 07:33:49;;;;;;;2.90;1.73;;;;;;;-145.69;100.00;52448.34;5050258;28;20230;-83
2022/10/17 07:36:16;;;;;;;4.95;1.50;;;;;;;-145.69;100.00;52468.16;5055218;28;20196;-83
2022/10/17 07:38:44;;;;;;;3.33;1.60;;;;;;;-145.69;100.00;52426.56;5054842;28;20195;-82
2022/10/17 07:41:12;;;;;;;2.65;1.40;;;;;;;-145.69;100.00;52458.25;5054776;28;20203;-83
2022/10/17 07:43:41;;;;;;;3.22;1.55;;;;;;;-145.69;100.00;52472.13;5055065;28;20211;-82
2022/10/17 07:46:11;;;;;;;5.05;1.70;;;;;;;-145.69;100.00;52444.38;5057462;28;20195;-83
2022/10/17 07:48:40;;;;;;;2.67;1.45;;;;;;;-145.69;100.00;52416.66;5059369;28;20207;-83
2022/10/17 07:51:11;;;;;;;2.90;1.60;;;;;;;-145.69;100.00;52456.28;5056328;28;20223;-82
2022/10/17 07:53:39;;;;;;;2.10;1.40;;;;;;;-145.69;100.00;52398.84;5058780;28;20233;-83
2022/10/17 07:56:08;;;;;;;2.97;1.42;;;;;;;-145.69;100.00;52434.47;5059688;28;20195;-83
2022/10/17 07:58:36;;;;;;;5.55;1.40;;;;;;;-145.69;100.00;52440.44;5058775;28;20286;-81
2022/10/17 08:01:03;;;;;;;3.78;1.48;;;;;;;-145.69;100.00;52444.38;5058659;28;20247;-83
2022/10/17 08:03:31;;;;;;;2.33;1.60;;;;;;;-145.69;100.00;52424.59;5049383;28;20513;-84
2022/10/17 08:05:58;;;;;;;1.85;1.15;;;;;;;-145.69;100.00;52388.94;5038943;28;20242;-82
2022/10/17 08:08:25;;;;;;;1.92;1.17;;;;;;;-145.69;100.00;52444.38;5037229;28;20258;-81
2022/10/17 08:10:52;;;;;;;1.30;1.13;;;;;;;-145.69;100.00;52412.69;5036557;28;20231;-82
2022/10/17 08:13:21;;;;;;;3.50;1.08;;;;;;;-145.69;100.00;52452.31;5034776;28;20200;-81
2022/10/17 08:15:47;;;;;;;2.40;1.27;;;;;;;-145.69;100.00;52400.81;5034246;28;20352;-81
2022/10/17 08:18:14;;;;;;;1.75;1.20;;;;;;;-145.69;100.00;52381.00;5033964;28;20715;-81
2022/10/17 08:20:41;;;;;;;1.75;1.35;;;;;;;-145.69;100.00;52394.88;5034282;28;20540;-79
2022/10/17 08:23:08;;;;;;;3.55;1.25;;;;;;;-145.69;100.00;52390.91;5034527;28;20611;-81
2022/10/17 08:25:34;;;;;;;4.05;1.30;;;;;;;-145.69;100.00;52420.63;5034454;28;20204;-82
2022/10/17 08:28:01;;;;;;;2.30;1.30;;;;;;;-145.69;100.00;52394.88;5034491;28;20200;-81
2022/10/17 08:30:30;;;;;;;1.48;1.20;;;;;;;-145.69;100.00;52406.75;5034588;28;20203;-80
2022/10/17 08:32:56;;;;;;;2.22;1.17;;;;;;;-145.69;100.00;52367.16;5036123;28;20228;-80
2022/10/17 08:35:25;;;;;;;1.70;1.20;;;;;;;-145.69;100.00;52386.97;5054114;28;20737;-81
2022/10/17 08:37:52;;;;;;;1.95;1.30;;;;;;;-145.69;100.00;52369.13;5053780;28;20207;-81
2022/10/17 08:40:21;;;;;;;2.53;1.20;;;;;;;-145.69;100.00;52373.09;5053922;28;20210;-81
2022/10/17 08:43:16;;;;;;;4.40;1.40;;;;;;;-145.69;100.00;52365.16;5053991;28;20210;-82
2022/10/17 08:45:47;;;;;;;3.45;1.30;;;;;;;-145.69;100.00;52345.38;5056766;28;20208;-84
2022/10/17 08:48:17;;;;;;;2.63;1.30;;;;;;;-145.69;100.00;52388.94;5056246;28;20269;-84
2022/10/17 08:50:47;;;;;;;3.30;1.20;;;;;;;-145.69;100.00;52333.47;5054580;28;20248;-84
2022/10/17 08:53:19;;;;;;;2.58;1.35;;;;;;;-145.69;100.00;52351.31;5054510;28;20227;-83
2022/10/17 08:55:47;;;;;;;3.47;1.30;;;;;;;-145.69;100.00;52359.22;5055656;28;20616;-83
2022/10/17 08:58:17;;;;;;;2.47;1.30;;;;;;;-145.69;96.21;52363.19;5068732;28;20200;-84
2022/10/17 09:00:51;;;;;;;1.75;1.27;;;;;;;-145.69;96.54;52373.09;5064448;28;20210;-84
2022/10/17 09:03:32;;;;;;;4.65;1.20;;;;;;;-145.69;80.81;52343.38;5057748;28;20244;-83
2022/10/17 09:06:14;;;;;;;1.17;1.08;;;;;;;-145.69;89.60;52337.44;5056822;28;20207;-83
2022/10/17 09:08:52;;;;;;;1.38;1.20;;;;;;;-145.69;89.86;52337.44;5056967;28;20196;-84
2022/10/17 09:11:41;;;;;;;2.40;1.30;;;;;;;-145.69;92.88;52329.53;5055887;28;20696;-83
2022/10/17 09:14:23;;;;;;;2.28;1.10;;;;;;;-145.69;97.43;52349.31;5054822;28;20198;-84
2022/10/17 09:17:12;;;;;;;3.20;1.38;;;;;;;-145.69;97.01;52341.41;5054380;28;20235;-83
2022/10/17 09:19:43;;;;;;;9.57;1.65;;;;;;;-145.69;100.00;52333.47;5054934;28;20239;-84
2022/10/17 09:22:14;;;;;;;2.90;1.40;;;;;;;-145.69;99.75;52343.38;5055973;28;20211;-84
2022/10/17 09:24:45;;;;;;;3.58;1.40;;;;;;;-145.69;100.00;52309.72;5055020;28;20195;-84
2022/10/17 09:27:24;;;;;;;2.53;1.45;;;;;;;-145.69;92.19;52333.47;5055431;28;20634;-83
2022/10/17 09:29:56;;;;;;;5.53;1.60;;;;;;;-145.69;84.74;52309.72;5055167;28;20203;-83
2022/10/17 09:32:26;;;;;;;2.28;1.33;;;;;;;-145.69;86.02;52301.81;5051420;28;20286;-83
2022/10/17 09:34:53;;;;;;;1.63;1.30;;;;;;;-145.69;84.20;52325.56;5033375;28;20200;-84
2022/10/17 09:37:32;;;;;;;3.67;1.35;;;;;;;-145.69;80.54;52297.84;5033737;28;20204;-82
2022/10/17 09:39:59;;;;;;;1.90;1.20;;;;;;;-145.69;77.85;52287.94;5035818;28;20203;-85
2022/10/17 09:42:27;;;;;;;4.18;1.40;;;;;;;-145.69;81.24;52313.69;5032555;28;20437;-83
2022/10/17 09:45:01;;;;;;;7.10;1.60;;;;;;;-145.69;77.84;52268.13;5032530;28;20207;-84
2022/10/17 09:47:34;;;;;;;4.00;1.50;;;;;;;-145.69;82.70;52283.97;5033043;28;20203;-82
2022/10/17 09:50:01;;;;;;;1.52;1.05;;;;;;;-145.69;82.77;52278.03;5033099;28;20207;-84
2022/10/17 09:52:33;;;;;;;1.92;1.15;;;;;;;-145.69;81.00;52309.72;5033491;28;20232;-81
2022/10/17 09:55:02;;;;;;;3.58;1.30;;;;;;;-145.69;84.47;52278.03;5034038;28;20204;-84
2022/10/17 09:57:55;;;;;;;4.95;1.30;;;;;;;-145.69;76.07;52301.81;5033838;28;20709;-84
2022/10/17 10:00:24;;;;;;;3.90;1.40;;;;;;;-145.69;75.83;52272.09;5033494;28;20200;-83
2022/10/17 10:02:51;;;;;;;1.95;1.15;;;;;;;-145.69;69.81;52291.91;5033922;28;20196;-84
2022/10/17 10:05:20;;;;;;;6.43;1.20;;;;;;;-145.69;71.07;52283.97;5034234;28;20295;-84
2022/10/17 10:08:02;;;;;;;2.90;1.65;;;;;;;-145.69;64.94;52262.19;5033488;28;20196;-84
2022/10/17 10:10:30;;;;;;;5.22;1.38;;;;;;;-145.69;64.78;52301.81;5033289;28;20258;-84
2022/10/17 10:13:06;;;;;;;2.13;1.13;;;;;;;-145.69;65.26;52268.13;5040692;28;20306;-83
2022/10/17 10:15:37;;;;;;;2.15;1.20;;;;;;;-145.69;60.78;52260.22;5035285;28;20585;-82
2022/10/17 10:18:31;;;;;;;1.85;1.13;;;;;;;-145.69;66.89;52236.44;5045810;28;20220;-82
2022/10/17 10:21:10;;;;;;;2.70;1.17;;;;;;;-145.69;68.56;52254.28;5032387;28;20204;-82
2022/10/17 10:23:39;;;;;;;6.30;1.23;;;;;;;-145.69;55.47;52246.34;5032608;28;20207;-81
2022/10/17 10:26:21;;;;;;;2.50;0.95;;;;;;;-145.69;66.05;52230.50;5032563;28;20291;-81
2022/10/17 10:28:56;;;;;;;4.05;1.35;;;;;;;-145.69;60.11;52222.59;5032359;28;20533;-81
2022/10/17 10:31:29;;;;;;;6.00;1.23;;;;;;;-145.69;54.43;52244.38;5032547;28;20298;-82
2022/10/17 10:33:56;;;;;;;4.72;1.17;;;;;;;-145.69;54.81;52214.66;5032120;28;20235;-82
2022/10/17 10:36:23;;;;;;;9.40;1.10;;;;;;;-145.69;50.82;52222.59;5032467;28;20223;-81
2022/10/17 10:38:54;;;;;;;5.00;1.23;;;;;;;-145.69;52.49;52179.03;5032917;28;20808;-81
2022/10/17 10:41:21;;;;;;;4.68;1.25;;;;;;;-145.69;52.74;52206.75;5035883;28;20207;-81
2022/10/17 10:43:51;;;;;;;4.40;1.25;;;;;;;-145.69;47.75;52186.94;5035722;28;20287;-81
2022/10/17 10:46:21;;;;;;;5.15;1.23;;;;;;;-145.69;48.94;52190.91;5035843;28;20217;-81
2022/10/17 10:48:54;;;;;;;4.22;1.27;;;;;;;-145.69;48.40;52232.50;5035574;28;20625;-81
2022/10/17 10:51:26;;;;;;;6.93;1.70;;;;;;;-145.69;49.85;52188.91;5036630;28;20196;-81
2022/10/17 10:53:59;;;;;;;3.53;1.25;;;;;;;-145.69;48.19;52194.88;5055669;28;20223;-81
2022/10/17 10:56:33;;;;;;;7.82;1.52;;;;;;;-145.69;48.24;52186.94;5055412;28;20199;-81
2022/10/17 10:59:05;;;;;;;6.35;1.23;;;;;;;-145.69;50.50;52186.94;5055738;28;20561;-82
2022/10/17 11:01:42;;;;;;;2.70;1.20;;;;;;;-145.69;49.55;52206.75;5055497;28;20211;-81
2022/10/17 11:04:26;;;;;;;12.05;1.35;;;;;;;-145.69;51.98;52153.28;5055300;28;20214;-82
2022/10/17 11:06:59;;;;;;;4.68;1.10;;;;;;;-145.69;46.28;52179.03;5055368;28;20229;-81
2022/10/17 11:09:42;;;;;;;5.10;1.25;;;;;;;-145.69;49.10;52173.09;5055536;28;20204;-81
2022/10/17 11:12:16;;;;;;;5.80;1.02;;;;;;;-145.69;49.30;52194.88;5055098;28;20227;-81
2022/10/17 11:14:47;;;;;;;3.28;1.30;;;;;;;-145.69;47.21;52226.53;5055384;28;20216;-81
2022/10/17 11:17:28;;;;;;;4.93;1.02;;;;;;;-145.69;46.92;52192.88;5050679;28;20287;-83
2022/10/17 11:20:02;;;;;;;3.25;1.17;;;;;;;-145.69;47.03;52190.91;5054851;28;20690;-82
2022/10/17 11:22:32;;;;;;;7.45;1.27;;;;;;;-145.69;43.00;52198.81;5054922;28;20211;-82
2022/10/17 11:25:17;;;;;;;6.75;0.90;;;;;;;-145.69;48.27;52200.81;5054959;28;20206;-82